createdAt,value
2022-10-16T00:01:39.558Z,99597.91
2022-10-16T00:04:06.538Z,99603.03
2022-10-16T00:06:33.664Z,99604.72
2022-10-16T00:09:01.237Z,99590.41
2022-10-16T00:11:37.460Z,99596.03
2022-10-16T00:14:11.928Z,99605.53
2022-10-16T00:16:39.369Z,99608.22
2022-10-16T00:19:06.545Z,99611.72
2022-10-16T00:21:34.643Z,99617.13
2022-10-16T00:24:20.250Z,99609.03
2022-10-16T00:26:50.833Z,99601.16
2022-10-16T00:29:17.751Z,99605.97
2022-10-16T00:31:44.806Z,99605.97
2022-10-16T00:34:11.998Z,99589.00
2022-10-16T00:36:39.040Z,99576.59
2022-10-16T00:39:06.326Z,99587.94
2022-10-16T00:41:33.979Z,99600.59
2022-10-16T00:44:04.926Z,99601.41
2022-10-16T00:46:43.209Z,99601.66
2022-10-16T00:49:19.623Z,99593.56
2022-10-16T00:51:51.026Z,99610.53
2022-10-16T00:54:26.920Z,99617.56
2022-10-16T00:56:56.098Z,99617.81
2022-10-16T00:59:49.965Z,99625.88
2022-10-16T01:02:18.247Z,99615.94
2022-10-16T01:04:51.118Z,99613.25
2022-10-16T01:07:42.699Z,99609.72
2022-10-16T01:10:41.779Z,99601.88
2022-10-16T01:13:21.611Z,99605.97
2022-10-16T01:16:07.449Z,99606.78
2022-10-16T01:18:53.370Z,99615.94
2022-10-16T01:21:35.938Z,99618.63
2022-10-16T01:24:39.995Z,99618.88
2022-10-16T01:27:26.151Z,99624.00
2022-10-16T01:30:26.016Z,99615.13
2022-10-16T01:33:19.957Z,99611.59
2022-10-16T01:35:54.297Z,99613.47
2022-10-16T01:38:36.179Z,99619.69
2022-10-16T01:41:15.774Z,99619.69
2022-10-16T01:44:05.845Z,99621.31
2022-10-16T01:46:38.699Z,99618.63
2022-10-16T01:49:09.843Z,99610.53
2022-10-16T01:51:37.937Z,99617.81
2022-10-16T01:54:09.058Z,99617.00
2022-10-16T01:56:37.855Z,99617.56
2022-10-16T01:59:20.878Z,99622.94
2022-10-16T02:01:57.600Z,99621.88
2022-10-16T02:04:46.302Z,99630.78
2022-10-16T02:07:14.448Z,99633.28
2022-10-16T02:09:41.854Z,99629.75
2022-10-16T02:12:33.122Z,99627.88
2022-10-16T02:15:00.283Z,99626.84
2022-10-16T02:17:29.002Z,99637.34
2022-10-16T02:19:58.925Z,99638.19
2022-10-16T02:22:41.274Z,99635.47
2022-10-16T02:25:25.355Z,99637.34
2022-10-16T02:28:17.762Z,99622.03
2022-10-16T02:31:00.738Z,99621.19
2022-10-16T02:33:29.354Z,99633.59
2022-10-16T02:35:57.797Z,99629.03
2022-10-16T02:38:26.222Z,99628.22
2022-10-16T02:40:53.879Z,99625.28
2022-10-16T02:43:21.059Z,99635.25
2022-10-16T02:45:48.017Z,99633.38
2022-10-16T02:48:15.773Z,99631.53
2022-10-16T02:50:42.727Z,99638.75
2022-10-16T02:53:09.659Z,99630.69
2022-10-16T02:55:36.604Z,99630.69
2022-10-16T02:58:03.719Z,99630.69
2022-10-16T03:00:30.667Z,99637.72
2022-10-16T03:02:57.601Z,99643.13
2022-10-16T03:05:24.610Z,99641.44
2022-10-16T03:07:53.450Z,99650.59
2022-10-16T03:10:20.602Z,99650.59
2022-10-16T03:12:47.601Z,99650.59
2022-10-16T03:15:14.633Z,99651.41
2022-10-16T03:17:41.589Z,99653.88
2022-10-16T03:20:08.983Z,99648.50
2022-10-16T03:22:35.965Z,99644.75
2022-10-16T03:25:03.229Z,99652.81
2022-10-16T03:27:30.187Z,99650.13
2022-10-16T03:29:57.340Z,99649.06
2022-10-16T03:32:26.041Z,99648.03
2022-10-16T03:34:55.088Z,99650.94
2022-10-16T03:37:22.093Z,99648.03
2022-10-16T03:39:49.034Z,99644.28
2022-10-16T03:42:16.035Z,99640.50
2022-10-16T03:44:42.955Z,99629.16
2022-10-16T03:47:09.921Z,99630.81
2022-10-16T03:49:36.825Z,99625.41
2022-10-16T03:52:03.822Z,99635.13
2022-10-16T03:54:30.811Z,99640.50
2022-10-16T03:56:57.771Z,99642.19
2022-10-16T03:59:24.735Z,99636.81
2022-10-16T04:01:51.668Z,99648.16
2022-10-16T04:04:18.923Z,99648.38
2022-10-16T04:06:45.844Z,99647.56
2022-10-16T04:09:12.841Z,99650.84
2022-10-16T04:11:40.042Z,99659.50
2022-10-16T04:14:07.000Z,99661.38
2022-10-16T04:16:33.920Z,99662.78
2022-10-16T04:19:00.964Z,99661.13
2022-10-16T04:21:27.956Z,99657.38
2022-10-16T04:23:54.909Z,99663.63
2022-10-16T04:26:22.017Z,99663.63
2022-10-16T04:28:49.085Z,99657.19
2022-10-16T04:31:16.058Z,99660.69
2022-10-16T04:33:46.380Z,99674.72
2022-10-16T04:36:13.781Z,99676.59
2022-10-16T04:38:40.834Z,99684.44
2022-10-16T04:41:08.799Z,99687.13
2022-10-16T04:43:35.824Z,99687.13
2022-10-16T04:46:03.028Z,99680.13
2022-10-16T04:48:29.974Z,99670.16
2022-10-16T04:50:57.140Z,99659.38
2022-10-16T04:53:24.306Z,99676.38
2022-10-16T04:55:51.739Z,99673.66
2022-10-16T04:58:18.830Z,99671.78
2022-10-16T05:00:47.663Z,99674.50
2022-10-16T05:03:15.122Z,99675.31
2022-10-16T05:05:46.773Z,99678.00
2022-10-16T05:08:15.489Z,99669.34
2022-10-16T05:10:44.283Z,99669.34
2022-10-16T05:13:11.957Z,99661.50
2022-10-16T05:15:39.171Z,99665.00
2022-10-16T05:18:06.175Z,99667.13
2022-10-16T05:20:33.222Z,99682.22
2022-10-16T05:23:00.283Z,99681.19
2022-10-16T05:25:27.466Z,99688.44
2022-10-16T05:27:54.436Z,99678.47
2022-10-16T05:30:21.561Z,99675.22
2022-10-16T05:32:49.916Z,99663.38
2022-10-16T05:35:18.461Z,99668.75
2022-10-16T05:37:45.633Z,99671.47
2022-10-16T05:40:13.886Z,99677.66
2022-10-16T05:42:41.461Z,99677.41
2022-10-16T05:45:11.938Z,99681.75
2022-10-16T05:47:38.988Z,99694.16
2022-10-16T05:50:06.329Z,99700.38
2022-10-16T05:52:33.269Z,99698.28
2022-10-16T05:55:00.227Z,99700.16
2022-10-16T05:57:27.421Z,99705.06
2022-10-16T05:59:54.599Z,99697.00
2022-10-16T06:02:21.575Z,99700.25
2022-10-16T06:04:48.544Z,99702.13
2022-10-16T06:07:15.602Z,99709.41
2022-10-16T06:09:42.574Z,99713.72
2022-10-16T06:12:09.542Z,99711.88
2022-10-16T06:14:36.498Z,99711.88
2022-10-16T06:17:03.479Z,99713.16
2022-10-16T06:19:30.430Z,99720.06
2022-10-16T06:21:58.979Z,99712.44
2022-10-16T06:24:26.355Z,99725.31
2022-10-16T06:26:53.275Z,99723.91
2022-10-16T06:29:20.368Z,99726.59
2022-10-16T06:31:47.304Z,99717.94
2022-10-16T06:34:14.267Z,99709.03
2022-10-16T06:36:42.322Z,99698.75
2022-10-16T06:39:09.333Z,99696.25
2022-10-16T06:41:36.358Z,99715.09
2022-10-16T06:44:15.550Z,99718.84
2022-10-16T06:46:42.527Z,99710.19
2022-10-16T06:49:09.629Z,99718.28
2022-10-16T06:51:43.098Z,99717.22
2022-10-16T06:54:10.615Z,99724.47
2022-10-16T06:56:37.619Z,99720.72
2022-10-16T06:59:05.201Z,99722.38
2022-10-16T07:01:33.028Z,99727.75
2022-10-16T07:04:00.690Z,99733.75
2022-10-16T07:06:31.629Z,99744.28
2022-10-16T07:08:58.591Z,99748.38
2022-10-16T07:11:25.606Z,99754.34
2022-10-16T07:13:55.903Z,99749.56
2022-10-16T07:16:32.695Z,99760.09
2022-10-16T07:19:02.538Z,99769.59
2022-10-16T07:21:38.219Z,99771.25
2022-10-16T07:24:11.332Z,99777.22
2022-10-16T07:26:40.184Z,99784.81
2022-10-16T07:29:22.440Z,99793.53
2022-10-16T07:31:50.670Z,99795.75
2022-10-16T07:34:20.217Z,99799.84
2022-10-16T07:36:50.574Z,99808.75
2022-10-16T07:39:18.510Z,99799.16
2022-10-16T07:41:45.640Z,99801.41
2022-10-16T07:44:12.612Z,99807.94
2022-10-16T07:46:39.593Z,99814.53
2022-10-16T07:49:06.506Z,99827.53
2022-10-16T07:51:33.892Z,99820.88
2022-10-16T07:54:00.869Z,99822.84
2022-10-16T07:56:27.833Z,99825.69
2022-10-16T07:58:54.836Z,99830.63
2022-10-16T08:01:21.869Z,99829.56
2022-10-16T08:03:53.241Z,99835.28
2022-10-16T08:06:26.773Z,99837.31
2022-10-16T08:08:56.965Z,99847.59
2022-10-16T08:11:24.447Z,99840.13
2022-10-16T08:13:51.384Z,99846.91
2022-10-16T08:16:18.842Z,99851.84
2022-10-16T08:18:45.847Z,99844.59
2022-10-16T08:21:21.774Z,99842.03
2022-10-16T08:23:54.590Z,99840.75
2022-10-16T08:26:24.531Z,99840.50
2022-10-16T08:28:52.786Z,99842.16
2022-10-16T08:31:20.464Z,99844.59
2022-10-16T08:33:48.287Z,99837.94
2022-10-16T08:36:16.938Z,99850.38
2022-10-16T08:38:44.738Z,99842.84
2022-10-16T08:41:14.400Z,99845.31
2022-10-16T08:44:02.900Z,99856.34
2022-10-16T08:47:04.494Z,99857.63
2022-10-16T08:49:32.087Z,99852.47
2022-10-16T08:51:59.479Z,99863.28
2022-10-16T08:54:35.793Z,99877.34
2022-10-16T08:57:24.485Z,99878.97
2022-10-16T08:59:53.113Z,99882.72
2022-10-16T09:02:32.692Z,99882.72
2022-10-16T09:05:50.999Z,99891.88
2022-10-16T09:08:39.589Z,99897.84
2022-10-16T09:11:48.706Z,99907.13
2022-10-16T09:14:58.898Z,99922.16
2022-10-16T09:17:32.151Z,99923.31
2022-10-16T09:20:27.135Z,99932.97
2022-10-16T09:23:14.594Z,99942.78
2022-10-16T09:25:48.521Z,99949.97
2022-10-16T09:28:17.142Z,99947.63
2022-10-16T09:30:45.136Z,99945.63
2022-10-16T09:33:14.661Z,99955.25
2022-10-16T09:35:51.169Z,99954.31
2022-10-16T09:38:30.429Z,99952.31
2022-10-16T09:41:03.122Z,99959.47
2022-10-16T09:43:42.144Z,99956.88
2022-10-16T09:46:32.710Z,99965.09
2022-10-16T09:49:02.900Z,99960.03
2022-10-16T09:51:32.454Z,99953.34
2022-10-16T09:54:08.024Z,99956.66
2022-10-16T09:56:39.699Z,99959.94
2022-10-16T09:59:18.003Z,99959.94
2022-10-16T10:01:52.826Z,99961.56
2022-10-16T10:04:26.595Z,99971.09
2022-10-16T10:06:58.254Z,99965.44
2022-10-16T10:09:34.230Z,99973.06
2022-10-16T10:14:41.117Z,99981.66
2022-10-16T10:17:11.004Z,99979.84
2022-10-16T10:19:49.349Z,99975.63
2022-10-16T10:22:28.484Z,99979.00
2022-10-16T10:25:13.544Z,99976.66
2022-10-16T10:28:14.534Z,99965.78
2022-10-16T10:31:00.687Z,99958.34
2022-10-16T10:33:58.412Z,99960.75
2022-10-16T10:36:41.730Z,99957.06
2022-10-16T10:39:43.054Z,99952.00
2022-10-16T10:42:20.034Z,99948.09
2022-10-16T10:45:12.450Z,99958.06
2022-10-16T10:47:54.360Z,99949.78
2022-10-16T10:50:57.651Z,99951.75
2022-10-16T10:53:51.183Z,99951.34
2022-10-16T10:56:53.085Z,99947.47
2022-10-16T11:00:28.246Z,99957.91
2022-10-16T11:03:58.227Z,99951.50
2022-10-16T11:06:49.463Z,99955.81
2022-10-16T11:09:18.760Z,99941.34
2022-10-16T11:12:02.259Z,99956.63
2022-10-16T11:14:37.011Z,99960.00
2022-10-16T11:17:27.426Z,99954.69
2022-10-16T11:20:23.411Z,99965.94
2022-10-16T11:22:58.050Z,99956.03
2022-10-16T11:25:32.452Z,99962.66
2022-10-16T11:28:32.195Z,99961.69
2022-10-16T11:31:20.207Z,99962.31
2022-10-16T11:34:12.991Z,99960.28
2022-10-16T11:37:03.975Z,99959.81
2022-10-16T11:39:31.950Z,99946.56
2022-10-16T11:42:19.943Z,99938.38
2022-10-16T11:45:03.412Z,99937.59
2022-10-16T11:47:58.780Z,99933.38
2022-10-16T11:50:35.892Z,99938.59
2022-10-16T11:53:25.171Z,99942.88
2022-10-16T11:55:52.828Z,99943.16
2022-10-16T11:59:10.130Z,99946.19
2022-10-16T12:01:50.561Z,99948.84
2022-10-16T12:04:46.138Z,99952.97
2022-10-16T12:07:16.730Z,99944.25
2022-10-16T12:09:43.956Z,99951.28
2022-10-16T12:12:47.319Z,99947.53
2022-10-16T12:15:34.886Z,99941.59
2022-10-16T12:18:25.635Z,99952.16
2022-10-16T12:21:05.439Z,99947.47
2022-10-16T12:23:54.890Z,99944.81
2022-10-16T12:26:32.315Z,99946.97
2022-10-16T12:29:29.200Z,99930.56
2022-10-16T12:31:58.318Z,99930.13
2022-10-16T12:34:43.552Z,99931.75
2022-10-16T12:37:39.019Z,99925.22
2022-10-16T12:40:30.665Z,99925.22
2022-10-16T12:42:58.183Z,99930.69
2022-10-16T12:45:35.215Z,99933.09
2022-10-16T12:48:18.894Z,99924.16
2022-10-16T12:50:45.889Z,99930.72
2022-10-16T12:53:27.009Z,99932.38
2022-10-16T12:56:23.997Z,99925.19
2022-10-16T12:59:44.043Z,99919.50
2022-10-16T13:03:10.352Z,99922.47
2022-10-16T13:05:57.120Z,99929.38
2022-10-16T13:09:07.970Z,99936.88
2022-10-16T13:12:18.246Z,99949.25
2022-10-16T13:14:59.812Z,99947.94
2022-10-16T13:18:00.546Z,99952.03
2022-10-16T13:21:01.265Z,99952.56
2022-10-16T13:24:09.183Z,99952.44
2022-10-16T13:27:06.478Z,99962.16
2022-10-16T13:29:34.890Z,99968.66
2022-10-16T13:32:12.836Z,99966.97
2022-10-16T13:34:49.755Z,99955.06
2022-10-16T13:37:23.869Z,99969.91
2022-10-16T13:39:54.101Z,99967.97
2022-10-16T13:42:29.083Z,99961.44
2022-10-16T13:44:57.414Z,99952.72
2022-10-16T13:47:29.588Z,99949.97
2022-10-16T13:50:12.176Z,99942.31
2022-10-16T13:52:39.517Z,99951.22
2022-10-16T13:55:16.637Z,99949.00
2022-10-16T13:57:44.365Z,99960.13
2022-10-16T14:00:24.322Z,99960.88
2022-10-16T14:03:05.706Z,99954.06
2022-10-16T14:05:33.561Z,99957.81
2022-10-16T14:08:01.223Z,99944.19
2022-10-16T14:10:32.086Z,99947.06
2022-10-16T14:13:06.297Z,99945.69
2022-10-16T14:15:36.521Z,99932.91
2022-10-16T14:18:04.425Z,99934.16
2022-10-16T14:20:35.057Z,99932.53
2022-10-16T14:23:21.947Z,99930.81
2022-10-16T14:25:49.181Z,99936.25
2022-10-16T14:28:23.076Z,99941.84
2022-10-16T14:31:21.771Z,99946.94
2022-10-16T14:33:48.699Z,99950.94
2022-10-16T14:36:19.450Z,99954.97
2022-10-16T14:39:20.375Z,99949.41
2022-10-16T14:41:50.190Z,99952.38
2022-10-16T14:44:21.738Z,99965.56
2022-10-16T14:46:48.981Z,99956.59
2022-10-16T14:49:21.142Z,99963.28
2022-10-16T14:51:49.100Z,99958.38
2022-10-16T14:54:18.573Z,99942.56
2022-10-16T14:56:56.382Z,99953.41
2022-10-16T14:59:41.429Z,99953.41
2022-10-16T15:02:37.517Z,99958.81
2022-10-16T15:05:25.601Z,99955.03
2022-10-16T15:07:55.776Z,99960.19
2022-10-16T15:10:25.197Z,99961.09
2022-10-16T15:12:52.917Z,99954.19
2022-10-16T15:15:42.537Z,99953.81
2022-10-16T15:18:09.471Z,99951.88
2022-10-16T15:20:39.018Z,99956.84
2022-10-16T15:23:17.972Z,99965.06
2022-10-16T15:25:47.853Z,99960.25
2022-10-16T15:28:16.712Z,99965.75
2022-10-16T15:30:46.245Z,99961.97
2022-10-16T15:33:20.123Z,99962.44
2022-10-16T15:35:52.214Z,99972.19
2022-10-16T15:38:21.961Z,99965.34
2022-10-16T15:40:49.945Z,99959.88
2022-10-16T15:43:17.247Z,99954.66
2022-10-16T15:45:44.168Z,99954.66
2022-10-16T15:48:14.745Z,99959.88
2022-10-16T15:50:41.702Z,99951.38
2022-10-16T15:53:08.916Z,99958.59
2022-10-16T15:55:38.697Z,99956.16
2022-10-16T15:58:06.430Z,99958.88
2022-10-16T16:00:33.775Z,99961.75
2022-10-16T16:03:00.814Z,99975.28
2022-10-16T16:05:28.447Z,99967.63
2022-10-16T16:07:55.428Z,99976.59
2022-10-16T16:10:22.552Z,99968.16
2022-10-16T16:12:52.818Z,99973.31
2022-10-16T16:15:21.647Z,99971.69
2022-10-16T16:17:49.337Z,99973.00
2022-10-16T16:20:16.648Z,99976.03
2022-10-16T16:22:43.680Z,99975.94
2022-10-16T16:25:11.015Z,99971.28
2022-10-16T16:27:39.393Z,99972.34
2022-10-16T16:30:16.744Z,99976.88
2022-10-16T16:32:46.542Z,99984.72
2022-10-16T16:35:13.474Z,99986.28
2022-10-16T16:37:40.390Z,99978.31
2022-10-16T16:40:07.553Z,99979.41
2022-10-16T16:42:34.463Z,99990.94
2022-10-16T16:45:01.472Z,99983.91
2022-10-16T16:47:28.802Z,99985.47
2022-10-16T16:49:56.026Z,99980.53
2022-10-16T16:52:23.329Z,99982.66
2022-10-16T16:54:52.862Z,99983.25
2022-10-16T16:57:21.090Z,99981.84
2022-10-16T16:59:50.633Z,99993.25
2022-10-16T17:02:18.114Z,99990.78
2022-10-16T17:04:45.177Z,99991.25
2022-10-16T17:07:12.224Z,99993.50
2022-10-16T17:09:39.544Z,99992.94
2022-10-16T17:12:06.436Z,99999.63
2022-10-16T17:14:33.417Z,99999.63
2022-10-16T17:17:00.405Z,100005.28
2022-10-16T17:19:27.501Z,100009.31
2022-10-16T17:21:54.487Z,100004.72
2022-10-16T17:24:21.741Z,100012.84
2022-10-16T17:26:49.464Z,100004.13
2022-10-16T17:29:18.351Z,100007.09
2022-10-16T17:31:46.020Z,100007.09
2022-10-16T17:34:13.357Z,100010.63
2022-10-16T17:36:46.718Z,100003.47
2022-10-16T17:39:17.680Z,100013.25
2022-10-16T17:41:45.459Z,100009.94
2022-10-16T17:44:20.136Z,100012.66
2022-10-16T17:46:50.024Z,100011.00
2022-10-16T17:49:18.234Z,100010.19
2022-10-16T17:51:45.588Z,100009.13
2022-10-16T17:54:14.511Z,100002.06
2022-10-16T17:56:42.141Z,100016.44
2022-10-16T17:59:11.959Z,100008.31
2022-10-16T18:01:41.433Z,100007.97
2022-10-16T18:04:12.957Z,100007.34
2022-10-16T18:06:41.601Z,100018.56
2022-10-16T18:09:10.628Z,100034.28
2022-10-16T18:11:38.092Z,100026.44
2022-10-16T18:14:05.445Z,100024.06
2022-10-16T18:16:33.224Z,100027.00
2022-10-16T18:19:00.250Z,100038.41
2022-10-16T18:21:28.488Z,100034.66
2022-10-16T18:23:57.439Z,100024.41
2022-10-16T18:26:25.113Z,100028.50
2022-10-16T18:28:57.194Z,100034.50
2022-10-16T18:31:26.340Z,100038.34
2022-10-16T18:33:54.246Z,100036.22
2022-10-16T18:36:32.992Z,100035.72
2022-10-16T18:39:04.357Z,100040.19
2022-10-16T18:41:32.613Z,100042.63
2022-10-16T18:43:59.573Z,100041.34
2022-10-16T18:46:27.192Z,100041.41
2022-10-16T18:48:57.413Z,100030.34
2022-10-16T18:51:37.592Z,100034.94
2022-10-16T18:54:10.712Z,100032.00
2022-10-16T18:56:39.035Z,100030.91
2022-10-16T18:59:08.091Z,100029.84
2022-10-16T19:01:38.615Z,100029.59
2022-10-16T19:04:08.253Z,100030.09
2022-10-16T19:06:39.669Z,100022.81
2022-10-16T19:09:07.130Z,100029.84
2022-10-16T19:11:39.222Z,100033.63
2022-10-16T19:14:08.752Z,100040.69
2022-10-16T19:16:37.193Z,100041.50
2022-10-16T19:19:08.784Z,100042.91
2022-10-16T19:21:39.938Z,100045.38
2022-10-16T19:24:08.955Z,100043.22
2022-10-16T19:26:38.200Z,100042.16
2022-10-16T19:29:09.208Z,100049.22
2022-10-16T19:31:36.219Z,100048.16
2022-10-16T19:34:06.139Z,100060.88
2022-10-16T19:36:38.710Z,100053.50
2022-10-16T19:39:12.305Z,100047.72
2022-10-16T19:41:39.787Z,100060.97
2022-10-16T19:44:11.162Z,100064.13
2022-10-16T19:46:38.431Z,100071.94
2022-10-16T19:49:10.595Z,100064.63
2022-10-16T19:51:39.213Z,100075.94
2022-10-16T19:54:13.870Z,100065.59
2022-10-16T19:56:42.269Z,100074.78
2022-10-16T19:59:13.339Z,100075.88
2022-10-16T20:01:40.436Z,100080.69
2022-10-16T20:04:07.440Z,100086.34
2022-10-16T20:06:34.423Z,100088.78
2022-10-16T20:09:01.484Z,100086.09
2022-10-16T20:11:34.865Z,100091.50
2022-10-16T20:14:02.782Z,100089.88
2022-10-16T20:16:30.835Z,100101.88
2022-10-16T20:18:59.091Z,100104.56
2022-10-16T20:21:29.996Z,100103.97
2022-10-16T20:23:57.580Z,100115.28
2022-10-16T20:26:26.166Z,100111.66
2022-10-16T20:28:54.526Z,100103.22
2022-10-16T20:31:25.802Z,100105.94
2022-10-16T20:33:55.265Z,100108.03
2022-10-16T20:36:24.698Z,100109.66
2022-10-16T20:38:52.657Z,100119.91
2022-10-16T20:41:20.099Z,100113.19
2022-10-16T20:43:49.849Z,100119.22
2022-10-16T20:46:23.783Z,100132.50
2022-10-16T20:48:51.450Z,100138.97
2022-10-16T20:51:26.697Z,100152.97
2022-10-16T20:54:02.220Z,100137.22
2022-10-16T20:56:31.983Z,100158.06
2022-10-16T20:58:59.023Z,100151.72
2022-10-16T21:01:29.064Z,100149.50
2022-10-16T21:03:59.918Z,100144.28
2022-10-16T21:06:27.492Z,100143.44
2022-10-16T21:08:54.905Z,100145.34
2022-10-16T21:11:27.596Z,100159.34
2022-10-16T21:13:58.289Z,100149.09
2022-10-16T21:16:25.721Z,100154.28
2022-10-16T21:18:53.213Z,100170.06
2022-10-16T21:21:29.518Z,100165.25
2022-10-16T21:23:58.817Z,100166.88
2022-10-16T21:26:27.143Z,100170.66
2022-10-16T21:29:01.182Z,100162.53
2022-10-16T21:31:28.721Z,100164.41
2022-10-16T21:33:56.513Z,100180.16
2022-10-16T21:36:36.090Z,100171.47
2022-10-16T21:39:16.808Z,100184.19
2022-10-16T21:41:45.730Z,100180.91
2022-10-16T21:44:13.625Z,100189.00
2022-10-16T21:46:43.332Z,100181.97
2022-10-16T21:49:17.110Z,100178.41
2022-10-16T21:51:48.123Z,100168.44
2022-10-16T21:54:19.362Z,100173.59
2022-10-16T21:56:46.566Z,100183.94
2022-10-16T21:59:14.609Z,100181.84
2022-10-16T22:01:42.907Z,100178.31
2022-10-16T22:04:15.560Z,100183.94
2022-10-16T22:06:42.737Z,100185.66
2022-10-16T22:09:14.499Z,100186.66
2022-10-16T22:11:44.474Z,100181.94
2022-10-16T22:14:15.422Z,100187.59
2022-10-16T22:16:43.337Z,100189.38
2022-10-16T22:19:13.529Z,100194.41
2022-10-16T22:21:42.313Z,100188.66
2022-10-16T22:24:09.969Z,100189.13
2022-10-16T22:26:38.015Z,100194.66
2022-10-16T22:29:05.957Z,100193.94
2022-10-16T22:31:33.486Z,100197.59
2022-10-16T22:34:03.397Z,100194.78
2022-10-16T22:36:31.466Z,100192.09
2022-10-16T22:38:59.259Z,100193.13
2022-10-16T22:41:26.274Z,100185.84
2022-10-16T22:43:53.299Z,100186.69
2022-10-16T22:46:24.408Z,100183.75
2022-10-16T22:48:52.155Z,100186.19
2022-10-16T22:51:19.535Z,100188.66
2022-10-16T22:53:48.856Z,100192.44
2022-10-16T22:56:17.781Z,100205.72
2022-10-16T22:58:44.980Z,100197.84
2022-10-16T23:01:32.206Z,100199.72
2022-10-16T23:04:01.224Z,100194.56
2022-10-16T23:06:28.722Z,100191.47
2022-10-16T23:08:59.473Z,100196.75
2022-10-16T23:11:27.713Z,100197.25
2022-10-16T23:13:55.370Z,100197.72
2022-10-16T23:16:23.188Z,100203.56
2022-10-16T23:18:50.747Z,100211.09
2022-10-16T23:21:24.324Z,100208.84
2022-10-16T23:23:53.618Z,100212.84
2022-10-16T23:26:26.767Z,100211.22
2022-10-16T23:28:58.419Z,100220.59
2022-10-16T23:31:26.038Z,100231.88
2022-10-16T23:33:53.186Z,100239.41
2022-10-16T23:36:22.351Z,100230.47
2022-10-16T23:38:50.222Z,100235.50
2022-10-16T23:41:19.221Z,100224.09
2022-10-16T23:43:46.704Z,100233.84
2022-10-16T23:46:15.139Z,100230.56
2022-10-16T23:48:42.504Z,100242.41
2022-10-16T23:51:10.278Z,100239.91
2022-10-16T23:53:37.579Z,100240.16
2022-10-16T23:56:05.037Z,100242.84
2022-10-16T23:58:31.974Z,100242.25
